createdAt,value
2022-12-19T00:01:32.756Z,97864.06
2022-12-19T00:04:01.900Z,97864.34
2022-12-19T00:06:33.607Z,97864.31
2022-12-19T00:09:01.045Z,97867.56
2022-12-19T00:11:29.656Z,97875.44
2022-12-19T00:13:56.596Z,97872.44
2022-12-19T00:16:25.423Z,97872.44
2022-12-19T00:18:55.420Z,97858.00
2022-12-19T00:21:25.024Z,97868.06
2022-12-19T00:23:52.109Z,97860.16
2022-12-19T00:26:27.462Z,97859.34
2022-12-19T00:28:57.077Z,97858.53
2022-12-19T00:31:25.919Z,97858.53
2022-12-19T00:33:52.508Z,97863.94
2022-12-19T00:36:22.878Z,97856.19
2022-12-19T00:38:51.633Z,97855.25
2022-12-19T00:41:22.025Z,97844.63
2022-12-19T00:44:12.610Z,97855.38
2022-12-19T00:46:39.263Z,97846.22
2022-12-19T00:49:06.356Z,97851.66
2022-12-19T00:51:35.170Z,97839.34
2022-12-19T00:54:03.087Z,97841.56
2022-12-19T00:56:37.608Z,97844.81
2022-12-19T00:59:04.609Z,97837.72
2022-12-19T01:01:34.369Z,97843.28
2022-12-19T01:04:27.740Z,97844.38
2022-12-19T01:06:49.568Z,97850.28
2022-12-19T01:09:16.151Z,97858.50
2022-12-19T01:12:01.343Z,97841.88
2022-12-19T01:14:27.828Z,97838.84
2022-12-19T01:16:54.277Z,97835.31
2022-12-19T01:19:20.987Z,97831.59
2022-12-19T01:21:47.486Z,97826.34
2022-12-19T01:24:15.813Z,97833.47
2022-12-19T01:26:45.935Z,97828.81
2022-12-19T01:29:12.403Z,97832.03
2022-12-19T01:31:39.025Z,97831.03
2022-12-19T01:34:05.530Z,97836.31
2022-12-19T01:36:32.100Z,97839.78
2022-12-19T01:38:58.701Z,97836.47
2022-12-19T01:41:25.478Z,97831.06
2022-12-19T01:43:54.861Z,97826.38
2022-12-19T01:46:29.918Z,97820.81
2022-12-19T01:48:56.859Z,97818.97
2022-12-19T01:51:29.357Z,97809.94
2022-12-19T01:54:01.264Z,97806.03
2022-12-19T01:56:34.554Z,97809.28
2022-12-19T01:59:07.812Z,97820.00
2022-12-19T02:01:35.656Z,97817.81
2022-12-19T02:04:07.456Z,97808.41
2022-12-19T02:06:35.255Z,97804.91
2022-12-19T02:09:02.239Z,97804.84
2022-12-19T02:11:28.723Z,97790.31
2022-12-19T02:13:55.217Z,97787.22
2022-12-19T02:16:38.515Z,97787.09
2022-12-19T02:19:44.155Z,97771.19
2022-12-19T02:22:27.278Z,97782.28
2022-12-19T02:25:15.679Z,97785.53
2022-12-19T02:27:45.270Z,97781.59
2022-12-19T02:30:18.246Z,97783.13
2022-12-19T02:32:47.976Z,97787.72
2022-12-19T02:35:53.457Z,97790.53
2022-12-19T02:38:41.971Z,97786.16
2022-12-19T02:42:06.996Z,97784.59
2022-12-19T02:44:38.424Z,97784.06
2022-12-19T02:47:06.667Z,97783.25
2022-12-19T02:49:36.467Z,97777.56
2022-12-19T02:52:09.932Z,97772.38
2022-12-19T02:54:37.992Z,97777.25
2022-12-19T02:57:27.395Z,97784.75
2022-12-19T03:00:27.218Z,97783.09
2022-12-19T03:03:14.784Z,97776.28
2022-12-19T03:05:51.269Z,97789.78
2022-12-19T03:08:29.854Z,97792.72
2022-12-19T03:11:00.751Z,97797.31
2022-12-19T03:13:32.579Z,97793.22
2022-12-19T03:16:00.354Z,97791.59
2022-12-19T03:18:27.619Z,97807.47
2022-12-19T03:21:09.374Z,97801.69
2022-12-19T03:23:36.172Z,97804.56
2022-12-19T03:26:10.744Z,97797.81
2022-12-19T03:28:43.443Z,97805.72
2022-12-19T03:31:12.607Z,97807.50
2022-12-19T03:33:41.871Z,97808.50
2022-12-19T03:36:13.016Z,97815.28
2022-12-19T03:38:40.925Z,97823.47
2022-12-19T03:41:10.714Z,97826.66
2022-12-19T03:43:39.152Z,97829.25
2022-12-19T03:46:17.078Z,97836.34
2022-12-19T03:48:46.368Z,97838.19
2022-12-19T03:51:43.818Z,97830.44
2022-12-19T03:54:21.005Z,97827.50
2022-12-19T03:56:54.372Z,97829.16
2022-12-19T03:59:33.421Z,97825.25
2022-12-19T04:02:01.805Z,97824.31
2022-12-19T04:04:30.760Z,97814.16
2022-12-19T04:06:58.743Z,97824.34
2022-12-19T04:09:25.441Z,97823.59
2022-12-19T04:11:58.561Z,97821.44
2022-12-19T04:14:34.695Z,97811.22
2022-12-19T04:17:15.812Z,97812.88
2022-12-19T04:19:59.846Z,97821.31
2022-12-19T04:22:32.484Z,97821.34
2022-12-19T04:25:01.679Z,97821.09
2022-12-19T04:27:29.638Z,97816.09
2022-12-19T04:29:58.376Z,97813.06
2022-12-19T04:32:26.799Z,97814.56
2022-12-19T04:34:53.435Z,97825.28
2022-12-19T04:37:20.204Z,97810.34
2022-12-19T04:39:46.944Z,97815.09
2022-12-19T04:42:13.387Z,97817.88
2022-12-19T04:44:40.162Z,97818.69
2022-12-19T04:47:06.889Z,97811.22
2022-12-19T04:49:33.407Z,97802.47
2022-12-19T04:51:59.903Z,97799.72
2022-12-19T04:54:26.384Z,97803.47
2022-12-19T04:56:53.931Z,97793.41
2022-12-19T04:59:20.383Z,97790.16
2022-12-19T05:01:47.041Z,97794.38
2022-12-19T05:04:13.620Z,97792.78
2022-12-19T05:06:40.162Z,97785.00
2022-12-19T05:09:06.854Z,97794.44
2022-12-19T05:11:33.337Z,97790.41
2022-12-19T05:14:00.007Z,97797.38
2022-12-19T05:16:26.584Z,97802.25
2022-12-19T05:18:54.529Z,97797.38
2022-12-19T05:21:22.411Z,97789.91
2022-12-19T05:23:50.113Z,97785.69
2022-12-19T05:26:17.022Z,97788.59
2022-12-19T05:28:43.655Z,97787.81
2022-12-19T05:31:14.242Z,97790.88
2022-12-19T05:33:41.684Z,97786.19
2022-12-19T05:36:09.163Z,97792.53
2022-12-19T05:38:36.337Z,97791.25
2022-12-19T05:41:08.061Z,97784.91
2022-12-19T05:43:34.592Z,97778.56
2022-12-19T05:46:01.066Z,97785.41
2022-12-19T05:48:27.540Z,97793.53
2022-12-19T05:50:54.036Z,97790.94
2022-12-19T05:53:24.629Z,97782.16
2022-12-19T05:55:52.588Z,97779.22
2022-12-19T05:58:19.232Z,97788.97
2022-12-19T06:00:45.834Z,97784.09
2022-12-19T06:03:12.421Z,97784.91
2022-12-19T06:05:39.603Z,97782.16
2022-12-19T06:08:06.442Z,97782.47
2022-12-19T06:10:34.242Z,97784.41
2022-12-19T06:13:00.797Z,97783.63
2022-12-19T06:15:27.861Z,97780.53
2022-12-19T06:17:55.537Z,97780.53
2022-12-19T06:20:22.154Z,97784.56
2022-12-19T06:22:48.651Z,97773.69
2022-12-19T06:25:15.148Z,97782.47
2022-12-19T06:27:41.591Z,97781.81
2022-12-19T06:30:08.612Z,97776.47
2022-12-19T06:32:38.163Z,97781.81
2022-12-19T06:35:05.578Z,97783.13
2022-12-19T06:37:32.044Z,97779.22
2022-12-19T06:39:58.596Z,97783.13
2022-12-19T06:42:25.185Z,97779.88
2022-12-19T06:44:54.076Z,97790.94
2022-12-19T06:47:22.045Z,97786.53
2022-12-19T06:49:49.046Z,97786.03
2022-12-19T06:52:16.813Z,97780.69
2022-12-19T06:54:43.259Z,97780.84
2022-12-19T06:57:09.928Z,97784.44
2022-12-19T06:59:36.483Z,97780.19
2022-12-19T07:02:15.756Z,97777.91
2022-12-19T07:04:48.900Z,97774.34
2022-12-19T07:07:15.374Z,97777.59
2022-12-19T07:09:41.926Z,97784.44
2022-12-19T07:12:08.425Z,97783.13
2022-12-19T07:14:35.061Z,97777.91
2022-12-19T07:17:02.909Z,97779.38
2022-12-19T07:19:31.820Z,97768.31
2022-12-19T07:22:00.472Z,97769.13
2022-12-19T07:24:27.216Z,97769.97
2022-12-19T07:26:53.800Z,97770.44
2022-12-19T07:29:20.400Z,97776.94
2022-12-19T07:31:46.884Z,97781.81
2022-12-19T07:34:13.496Z,97771.75
2022-12-19T07:36:39.893Z,97778.06
2022-12-19T07:39:06.406Z,97774.97
2022-12-19T07:41:33.522Z,97779.53
2022-12-19T07:44:00.265Z,97779.53
2022-12-19T07:46:29.839Z,97786.03
2022-12-19T07:48:56.297Z,97773.34
2022-12-19T07:51:22.761Z,97772.03
2022-12-19T07:53:49.311Z,97777.56
2022-12-19T07:56:17.027Z,97778.53
2022-12-19T07:58:44.720Z,97784.69
2022-12-19T08:01:12.385Z,97789.75
2022-12-19T08:03:39.164Z,97782.72
2022-12-19T08:06:07.185Z,97787.91
2022-12-19T08:08:34.139Z,97794.72
2022-12-19T08:11:13.387Z,97785.63
2022-12-19T08:13:46.187Z,97797.78
2022-12-19T08:16:13.405Z,97800.88
2022-12-19T08:18:40.456Z,97803.13
2022-12-19T08:21:08.467Z,97804.41
2022-12-19T08:23:35.115Z,97805.41
2022-12-19T08:26:06.622Z,97804.09
2022-12-19T08:28:34.222Z,97808.63
2022-12-19T08:31:07.637Z,97814.47
2022-12-19T08:33:34.289Z,97812.22
2022-12-19T08:36:05.260Z,97806.97
2022-12-19T08:38:32.009Z,97804.84
2022-12-19T08:40:58.528Z,97806.13
2022-12-19T08:43:26.223Z,97810.50
2022-12-19T08:45:52.771Z,97815.84
2022-12-19T08:48:19.270Z,97824.78
2022-12-19T08:50:57.147Z,97818.22
2022-12-19T08:53:26.581Z,97822.97
2022-12-19T08:56:01.525Z,97803.84
2022-12-19T08:58:29.470Z,97805.78
2022-12-19T09:01:05.387Z,97801.66
2022-12-19T09:03:51.670Z,97805.34
2022-12-19T09:06:20.104Z,97808.19
2022-12-19T09:08:46.930Z,97806.88
2022-12-19T09:11:15.947Z,97801.06
2022-12-19T09:13:43.303Z,97806.59
2022-12-19T09:16:21.766Z,97804.06
2022-12-19T09:18:50.703Z,97800.44
2022-12-19T09:21:19.860Z,97796.50
2022-12-19T09:23:51.650Z,97787.31
2022-12-19T09:26:19.555Z,97792.19
2022-12-19T09:28:47.747Z,97786.63
2022-12-19T09:31:17.612Z,97788.59
2022-12-19T09:33:44.543Z,97777.47
2022-12-19T09:36:16.097Z,97777.50
2022-12-19T09:38:43.234Z,97783.09
2022-12-19T09:41:31.613Z,97778.63
2022-12-19T09:44:10.835Z,97781.81
2022-12-19T09:46:51.378Z,97781.13
2022-12-19T09:49:22.221Z,97783.75
2022-12-19T09:52:10.174Z,97783.22
2022-12-19T09:54:51.347Z,97778.47
2022-12-19T09:57:31.249Z,97779.34
2022-12-19T10:00:05.002Z,97774.53
2022-12-19T10:02:54.196Z,97769.50
2022-12-19T10:06:07.383Z,97769.66
2022-12-19T10:09:00.737Z,97770.19
2022-12-19T10:12:38.708Z,97768.19
2022-12-19T10:14:57.643Z,97769.06
2022-12-19T10:17:51.595Z,97759.88
2022-12-19T10:20:27.832Z,97768.31
2022-12-19T10:23:24.120Z,97757.13
2022-12-19T10:26:04.591Z,97751.53
2022-12-19T10:28:39.791Z,97757.75
2022-12-19T10:31:24.609Z,97751.53
2022-12-19T10:34:01.492Z,97752.03
2022-12-19T10:37:04.622Z,97748.44
2022-12-19T10:39:43.439Z,97738.47
2022-12-19T10:42:19.842Z,97734.09
2022-12-19T10:44:49.098Z,97741.53
2022-12-19T10:47:17.373Z,97747.00
2022-12-19T10:49:43.765Z,97746.00
2022-12-19T10:52:12.524Z,97727.53
2022-12-19T10:54:43.899Z,97730.97
2022-12-19T10:57:24.598Z,97728.72
2022-12-19T10:59:59.989Z,97725.88
2022-12-19T11:02:38.879Z,97723.88
2022-12-19T11:05:21.212Z,97713.47
2022-12-19T11:08:06.213Z,97706.56
2022-12-19T11:12:37.891Z,97691.44
2022-12-19T11:18:44.491Z,97701.16
2022-12-19T11:21:46.318Z,97693.88
2022-12-19T11:29:24.867Z,97689.38
2022-12-19T11:29:36.339Z,97694.59
2022-12-19T11:30:26.152Z,97690.78
2022-12-19T11:30:37.984Z,97686.47
2022-12-19T11:34:16.482Z,97679.13
2022-12-19T11:36:49.129Z,97679.13
2022-12-19T11:39:41.810Z,97673.09
2022-12-19T11:42:33.381Z,97669.66
2022-12-19T11:45:26.280Z,97654.72
2022-12-19T11:48:03.921Z,97647.06
2022-12-19T11:50:35.241Z,97661.16
2022-12-19T11:53:14.720Z,97651.72
2022-12-19T11:56:00.929Z,97647.47
2022-12-19T11:58:31.298Z,97650.72
2022-12-19T12:01:30.220Z,97653.56
2022-12-19T12:04:23.203Z,97647.47
2022-12-19T12:06:54.374Z,97656.38
2022-12-19T12:11:29.122Z,97659.81
2022-12-19T12:20:15.006Z,97665.59
2022-12-19T12:27:42.088Z,97664.41
2022-12-19T12:30:59.852Z,97659.59
2022-12-19T12:31:13.772Z,97662.41
2022-12-19T12:31:46.436Z,97650.69
2022-12-19T12:31:57.753Z,97647.47
2022-12-19T12:35:16.365Z,97640.41
2022-12-19T12:35:36.473Z,97646.25
2022-12-19T12:39:33.980Z,97623.66
2022-12-19T12:42:16.015Z,97635.53
2022-12-19T12:44:46.188Z,97632.13
2022-12-19T12:47:20.632Z,97627.06
2022-12-19T12:50:02.456Z,97629.66
2022-12-19T12:52:35.083Z,97630.69
2022-12-19T12:55:04.768Z,97623.66
2022-12-19T12:57:37.507Z,97613.97
2022-12-19T13:00:29.936Z,97626.06
2022-12-19T13:03:13.837Z,97624.06
2022-12-19T13:05:46.100Z,97620.22
2022-12-19T13:08:36.338Z,97601.06
2022-12-19T13:11:34.734Z,97615.16
2022-12-19T13:14:01.375Z,97620.50
2022-12-19T13:16:45.927Z,97625.72
2022-12-19T13:19:22.514Z,97633.63
2022-12-19T13:22:05.004Z,97628.19
2022-12-19T13:24:50.350Z,97633.00
2022-12-19T13:27:19.781Z,97625.72
2022-12-19T13:30:01.495Z,97621.50
2022-12-19T13:32:53.993Z,97616.63
2022-12-19T13:39:34.845Z,97611.97
2022-12-19T13:39:50.750Z,97616.97
2022-12-19T13:41:49.368Z,97622.16
2022-12-19T13:44:21.938Z,97620.53
2022-12-19T13:46:49.363Z,97616.28
2022-12-19T13:49:34.508Z,97623.28
2022-12-19T13:52:03.775Z,97606.34
2022-12-19T13:54:36.416Z,97618.06
2022-12-19T13:57:08.996Z,97624.91
2022-12-19T13:59:39.728Z,97616.81
2022-12-19T14:02:23.838Z,97620.34
2022-12-19T14:04:50.448Z,97626.75
2022-12-19T14:07:41.231Z,97623.91
2022-12-19T14:11:35.219Z,97621.31
2022-12-19T14:13:50.327Z,97628.91
2022-12-19T14:16:18.588Z,97627.25
2022-12-19T14:18:49.911Z,97635.97
2022-12-19T14:22:04.136Z,97642.13
2022-12-19T14:24:19.507Z,97642.81
2022-12-19T14:28:24.151Z,97634.38
2022-12-19T14:30:31.065Z,97652.44
2022-12-19T14:33:53.460Z,97646.81
2022-12-19T14:36:05.844Z,97650.03
2022-12-19T14:39:23.615Z,97648.84
2022-12-19T14:41:40.875Z,97648.63
2022-12-19T14:53:34.117Z,97645.38
2022-12-19T14:54:12.860Z,97645.44
2022-12-19T14:54:20.628Z,97631.19
2022-12-19T14:54:31.517Z,97626.66
2022-12-19T14:56:14.159Z,97639.28
2022-12-19T14:58:53.233Z,97635.69
2022-12-19T15:01:27.806Z,97639.53
2022-12-19T15:04:47.788Z,97625.59
2022-12-19T15:07:09.460Z,97641.47
2022-12-19T15:11:05.089Z,97632.47
2022-12-19T15:14:20.852Z,97629.50
2022-12-19T15:15:48.380Z,97627.88
2022-12-19T15:18:22.871Z,97613.91
2022-12-19T15:20:51.243Z,97613.00
2022-12-19T15:23:22.237Z,97624.41
2022-12-19T15:26:06.469Z,97622.84
2022-12-19T15:28:49.830Z,97619.47
2022-12-19T15:31:40.039Z,97627.31
2022-12-19T15:34:35.861Z,97612.03
2022-12-19T15:37:03.553Z,97605.25
2022-12-19T15:39:30.302Z,97602.56
2022-12-19T15:41:59.335Z,97605.19
2022-12-19T15:44:41.026Z,97604.06
2022-12-19T15:47:18.129Z,97610.19
2022-12-19T15:49:44.644Z,97610.19
2022-12-19T15:52:17.233Z,97617.16
2022-12-19T15:54:49.386Z,97621.44
2022-12-19T15:57:33.094Z,97610.19
2022-12-19T16:00:07.728Z,97604.94
2022-12-19T16:03:13.313Z,97602.31
2022-12-19T16:05:23.218Z,97604.94
2022-12-19T16:07:50.053Z,97616.81
2022-12-19T16:10:17.586Z,97615.63
2022-12-19T16:12:48.198Z,97607.63
2022-12-19T16:15:25.635Z,97611.28
2022-12-19T16:17:53.525Z,97611.59
2022-12-19T16:20:25.591Z,97610.03
2022-12-19T16:22:52.163Z,97598.06
2022-12-19T16:25:19.483Z,97600.94
2022-12-19T16:27:53.220Z,97600.78
2022-12-19T16:30:30.759Z,97596.72
2022-12-19T16:32:57.474Z,97592.78
2022-12-19T16:35:54.945Z,97586.25
2022-12-19T16:38:11.945Z,97595.50
2022-12-19T16:40:39.601Z,97593.56
2022-12-19T16:43:13.800Z,97584.97
2022-12-19T16:45:40.302Z,97592.72
2022-12-19T16:48:20.667Z,97590.94
2022-12-19T16:50:47.360Z,97592.38
2022-12-19T16:53:14.172Z,97591.34
2022-12-19T16:55:40.851Z,97583.25
2022-12-19T16:58:14.713Z,97591.22
2022-12-19T17:00:41.270Z,97590.78
2022-12-19T17:03:52.561Z,97583.56
2022-12-19T17:06:20.684Z,97578.31
2022-12-19T17:08:47.453Z,97566.59
2022-12-19T17:11:25.804Z,97569.94
2022-12-19T17:14:16.210Z,97566.41
2022-12-19T17:16:43.011Z,97564.13
2022-12-19T17:19:21.856Z,97574.19
2022-12-19T17:21:49.616Z,97586.84
2022-12-19T17:24:16.634Z,97581.03
2022-12-19T17:26:43.937Z,97573.03
2022-12-19T17:29:11.815Z,97581.81
2022-12-19T17:31:40.246Z,97580.53
2022-12-19T17:34:12.792Z,97578.25
2022-12-19T17:36:39.298Z,97585.16
2022-12-19T17:39:33.419Z,97587.41
2022-12-19T17:42:11.299Z,97586.72
2022-12-19T17:44:37.739Z,97597.44
2022-12-19T17:47:04.517Z,97592.78
2022-12-19T17:49:31.720Z,97603.47
2022-12-19T17:51:59.594Z,97602.44
2022-12-19T17:54:26.890Z,97605.56
2022-12-19T17:56:53.568Z,97607.28
2022-12-19T17:59:20.667Z,97611.69
2022-12-19T18:01:47.406Z,97612.03
2022-12-19T18:04:16.532Z,97612.38
2022-12-19T18:06:43.659Z,97603.66
2022-12-19T18:09:18.713Z,97594.91
2022-12-19T18:11:45.688Z,97590.41
2022-12-19T18:14:12.615Z,97592.38
2022-12-19T18:16:39.281Z,97599.72
2022-12-19T18:19:06.432Z,97601.75
2022-12-19T18:21:33.044Z,97611.81
2022-12-19T18:23:59.512Z,97612.88
2022-12-19T18:26:26.075Z,97623.84
2022-12-19T18:28:54.419Z,97618.63
2022-12-19T18:31:26.823Z,97614.38
2022-12-19T18:33:55.054Z,97617.25
2022-12-19T18:36:25.074Z,97612.38
2022-12-19T18:38:52.535Z,97625.00
2022-12-19T18:41:19.989Z,97608.81
2022-12-19T18:43:46.732Z,97605.22
2022-12-19T18:46:15.887Z,97607.19
2022-12-19T18:48:44.277Z,97604.13
2022-12-19T18:51:19.143Z,97601.09
2022-12-19T18:53:46.711Z,97608.34
2022-12-19T18:56:13.276Z,97607.09
2022-12-19T18:58:40.112Z,97601.38
2022-12-19T19:01:13.534Z,97593.28
2022-12-19T19:03:41.492Z,97591.53
2022-12-19T19:06:23.631Z,97602.66
2022-12-19T19:08:53.092Z,97603.06
2022-12-19T19:11:23.639Z,97594.00
2022-12-19T19:13:50.716Z,97594.91
2022-12-19T19:16:27.772Z,97595.75
2022-12-19T19:18:56.293Z,97594.34
2022-12-19T19:21:26.297Z,97587.81
2022-12-19T19:24:00.104Z,97592.72
2022-12-19T19:26:26.585Z,97590.41
2022-12-19T19:28:53.075Z,97584.50
2022-12-19T19:31:23.486Z,97591.78
2022-12-19T19:33:55.566Z,97590.56
2022-12-19T19:36:25.551Z,97585.19
2022-12-19T19:38:54.777Z,97595.25
2022-12-19T19:41:22.682Z,97586.81
2022-12-19T19:43:49.111Z,97580.63
2022-12-19T19:46:15.753Z,97575.34
2022-12-19T19:48:42.689Z,97569.16
2022-12-19T19:51:09.423Z,97572.44
2022-12-19T19:53:36.098Z,97571.06
2022-12-19T19:56:03.979Z,97576.19
2022-12-19T19:58:30.693Z,97571.28
2022-12-19T20:00:57.407Z,97564.06
2022-12-19T20:03:24.362Z,97562.09
2022-12-19T20:05:59.028Z,97559.75
2022-12-19T20:08:25.797Z,97556.19
2022-12-19T20:10:56.612Z,97562.75
2022-12-19T20:13:23.574Z,97566.06
2022-12-19T20:15:52.137Z,97561.19
2022-12-19T20:18:19.039Z,97569.97
2022-12-19T20:20:48.713Z,97571.31
2022-12-19T20:23:15.181Z,97573.00
2022-12-19T20:25:43.124Z,97578.09
2022-12-19T20:28:09.736Z,97583.56
2022-12-19T20:30:37.390Z,97589.75
2022-12-19T20:33:04.046Z,97575.47
2022-12-19T20:35:30.600Z,97584.34
2022-12-19T20:37:57.042Z,97583.41
2022-12-19T20:40:23.511Z,97587.28
2022-12-19T20:42:50.135Z,97583.69
2022-12-19T20:45:16.665Z,97588.53
2022-12-19T20:47:43.044Z,97593.41
2022-12-19T20:50:09.815Z,97587.22
2022-12-19T20:52:36.317Z,97587.94
2022-12-19T20:55:02.857Z,97584.16
2022-12-19T20:57:30.509Z,97583.00
2022-12-19T20:59:57.045Z,97593.06
2022-12-19T21:02:23.693Z,97592.72
2022-12-19T21:04:50.270Z,97597.94
2022-12-19T21:07:16.730Z,97591.47
2022-12-19T21:09:44.983Z,97586.06
2022-12-19T21:12:12.603Z,97589.84
2022-12-19T21:14:39.190Z,97588.53
2022-12-19T21:17:05.997Z,97585.78
2022-12-19T21:19:32.582Z,97580.00
2022-12-19T21:21:59.325Z,97587.75
2022-12-19T21:24:25.933Z,97582.16
2022-12-19T21:26:57.823Z,97587.03
2022-12-19T21:29:25.019Z,97579.84
2022-12-19T21:31:51.720Z,97583.09
2022-12-19T21:34:18.326Z,97586.31
2022-12-19T21:36:44.779Z,97586.31
2022-12-19T21:39:11.355Z,97580.50
2022-12-19T21:41:37.918Z,97589.28
2022-12-19T21:44:04.568Z,97585.06
2022-12-19T21:46:35.864Z,97578.22
2022-12-19T21:49:03.336Z,97581.53
2022-12-19T21:51:31.879Z,97588.78
2022-12-19T21:54:01.067Z,97589.81
2022-12-19T21:56:36.589Z,97584.19
2022-12-19T21:59:10.080Z,97582.72
2022-12-19T22:01:36.766Z,97573.94
2022-12-19T22:04:11.279Z,97585.44
2022-12-19T22:06:39.036Z,97575.94
2022-12-19T22:09:08.235Z,97569.78
2022-12-19T22:11:36.444Z,97568.50
2022-12-19T22:14:05.013Z,97580.78
2022-12-19T22:16:32.042Z,97586.19
2022-12-19T22:18:59.182Z,97591.59
2022-12-19T22:21:26.409Z,97587.75
2022-12-19T22:23:55.858Z,97596.66
2022-12-19T22:26:23.584Z,97595.31
2022-12-19T22:28:52.904Z,97587.13
2022-12-19T22:31:20.716Z,97598.19
2022-12-19T22:33:48.413Z,97588.75
2022-12-19T22:36:16.787Z,97577.59
2022-12-19T22:38:47.013Z,97590.00
2022-12-19T22:41:14.592Z,97591.34
2022-12-19T22:43:41.333Z,97579.47
2022-12-19T22:46:13.936Z,97571.84
2022-12-19T22:48:40.573Z,97574.69
2022-12-19T22:51:07.802Z,97567.59
2022-12-19T22:53:35.357Z,97569.84
2022-12-19T22:56:08.047Z,97560.41
2022-12-19T22:58:36.197Z,97567.59
2022-12-19T23:01:05.083Z,97568.78
2022-12-19T23:03:31.876Z,97567.53
2022-12-19T23:06:01.332Z,97566.59
2022-12-19T23:08:28.102Z,97577.03
2022-12-19T23:10:55.271Z,97574.50
2022-12-19T23:13:22.943Z,97571.28
2022-12-19T23:15:49.564Z,97570.09
2022-12-19T23:18:16.095Z,97561.28
2022-12-19T23:20:43.182Z,97555.25
2022-12-19T23:23:10.631Z,97547.81
2022-12-19T23:25:38.988Z,97563.16
2022-12-19T23:28:06.110Z,97574.06
2022-12-19T23:30:32.857Z,97578.34
2022-12-19T23:33:00.837Z,97574.13
2022-12-19T23:35:28.036Z,97562.47
2022-12-19T23:37:54.572Z,97558.19
2022-12-19T23:40:21.017Z,97558.66
2022-12-19T23:42:47.635Z,97557.03
2022-12-19T23:45:14.299Z,97552.81
2022-12-19T23:47:40.790Z,97554.16
2022-12-19T23:50:07.932Z,97551.88
2022-12-19T23:52:34.493Z,97551.16
2022-12-19T23:55:01.014Z,97550.13
2022-12-19T23:57:27.522Z,97542.97
2022-12-19T23:59:54.020Z,97546.53
